createdAt,value
2018-09-29T00:00:41.080Z,7.60
2018-09-29T00:03:09.319Z,7.50
2018-09-29T00:05:37.804Z,7.50
2018-09-29T00:08:06.053Z,7.60
2018-09-29T00:10:34.190Z,7.60
2018-09-29T00:13:02.361Z,7.70
2018-09-29T00:15:30.534Z,7.70
2018-09-29T00:17:58.680Z,7.80
2018-09-29T00:20:26.826Z,7.80
2018-09-29T00:22:54.973Z,7.70
2018-09-29T00:25:23.133Z,7.80
2018-09-29T00:27:51.283Z,7.80
2018-09-29T00:30:19.437Z,7.80
2018-09-29T00:32:47.669Z,7.70
2018-09-29T00:35:15.829Z,7.70
2018-09-29T00:37:43.973Z,7.80
2018-09-29T00:40:12.157Z,7.80
2018-09-29T00:42:40.294Z,7.80
2018-09-29T00:45:08.461Z,7.80
2018-09-29T00:47:36.619Z,7.80
2018-09-29T00:50:04.886Z,7.70
2018-09-29T00:52:33.085Z,7.70
2018-09-29T00:55:01.264Z,7.60
2018-09-29T00:57:29.417Z,7.60
2018-09-29T00:59:57.606Z,7.50
2018-09-29T01:02:25.756Z,7.50
2018-09-29T01:04:53.929Z,7.50
2018-09-29T01:07:22.090Z,7.50
2018-09-29T01:09:50.240Z,7.50
2018-09-29T01:12:18.409Z,7.50
2018-09-29T01:14:46.585Z,7.50
2018-09-29T01:17:14.732Z,7.40
2018-09-29T01:19:42.901Z,7.40
2018-09-29T01:22:11.041Z,7.40
2018-09-29T01:24:39.186Z,7.20
2018-09-29T01:27:07.353Z,7.20
2018-09-29T01:29:35.512Z,7.30
2018-09-29T01:32:03.656Z,7.30
2018-09-29T01:34:31.798Z,7.20
2018-09-29T01:36:59.920Z,7.10
2018-09-29T01:39:28.062Z,7.10
2018-09-29T01:41:56.210Z,7.10
2018-09-29T01:44:24.369Z,7.10
2018-09-29T01:46:52.493Z,7.10
2018-09-29T01:49:20.639Z,7.00
2018-09-29T01:51:48.781Z,7.00
2018-09-29T01:54:16.921Z,6.90
2018-09-29T01:56:45.061Z,6.90
2018-09-29T01:59:13.188Z,6.80
2018-09-29T02:01:41.328Z,6.80
2018-09-29T02:04:09.500Z,6.80
2018-09-29T02:06:37.669Z,6.80
2018-09-29T02:09:06.969Z,6.70
2018-09-29T02:11:35.102Z,6.70
2018-09-29T02:14:03.255Z,6.70
2018-09-29T02:16:31.397Z,6.50
2018-09-29T02:18:59.530Z,6.50
2018-09-29T02:21:27.694Z,6.60
2018-09-29T02:23:55.837Z,6.60
2018-09-29T02:26:23.982Z,6.60
2018-09-29T02:28:52.155Z,6.60
2018-09-29T02:31:20.289Z,6.60
2018-09-29T02:33:48.432Z,6.60
2018-09-29T02:36:16.573Z,6.60
2018-09-29T02:38:44.733Z,6.60
2018-09-29T02:41:12.871Z,6.70
2018-09-29T02:43:41.090Z,6.50
2018-09-29T02:46:09.245Z,6.60
2018-09-29T02:48:37.373Z,6.60
2018-09-29T02:51:05.562Z,6.60
2018-09-29T02:53:33.701Z,6.60
2018-09-29T02:56:01.861Z,6.60
2018-09-29T02:58:29.997Z,6.50
2018-09-29T03:00:58.135Z,6.50
2018-09-29T03:03:26.280Z,6.40
2018-09-29T03:05:54.456Z,6.40
2018-09-29T03:08:22.597Z,6.40
2018-09-29T03:10:50.756Z,6.40
2018-09-29T03:13:18.918Z,6.40
2018-09-29T03:15:47.084Z,6.30
2018-09-29T03:18:15.254Z,6.20
2018-09-29T03:20:43.425Z,6.20
2018-09-29T03:23:11.577Z,6.10
2018-09-29T03:25:39.746Z,6.10
2018-09-29T03:28:07.892Z,6.10
2018-09-29T03:30:36.105Z,6.20
2018-09-29T03:33:04.326Z,6.10
2018-09-29T03:35:32.489Z,6.10
2018-09-29T03:38:00.652Z,6.10
2018-09-29T03:40:28.807Z,6.10
2018-09-29T03:42:56.973Z,6.10
2018-09-29T03:45:25.131Z,6.30
2018-09-29T03:47:53.312Z,6.00
2018-09-29T03:50:21.458Z,6.00
2018-09-29T03:52:49.633Z,6.00
2018-09-29T03:55:17.791Z,6.00
2018-09-29T03:57:45.983Z,5.90
2018-09-29T04:00:14.133Z,6.00
2018-09-29T04:02:42.302Z,6.00
2018-09-29T04:05:10.465Z,6.00
2018-09-29T04:07:38.630Z,6.00
2018-09-29T04:10:06.804Z,5.90
2018-09-29T04:12:34.969Z,6.00
2018-09-29T04:15:03.117Z,6.00
2018-09-29T04:17:31.336Z,5.90
2018-09-29T04:19:59.525Z,5.80
2018-09-29T04:22:27.677Z,5.80
2018-09-29T04:24:55.829Z,5.80
2018-09-29T04:27:23.989Z,5.80
2018-09-29T04:29:52.134Z,5.80
2018-09-29T04:32:20.333Z,5.80
2018-09-29T04:34:48.505Z,5.80
2018-09-29T04:37:16.661Z,5.70
2018-09-29T04:39:44.857Z,5.70
2018-09-29T04:42:13.020Z,5.70
2018-09-29T04:44:41.173Z,5.70
2018-09-29T04:47:09.316Z,5.70
2018-09-29T04:49:37.586Z,5.80
2018-09-29T04:52:05.809Z,5.80
2018-09-29T04:54:34.357Z,5.80
2018-09-29T04:57:02.547Z,5.80
2018-09-29T04:59:30.715Z,5.80
2018-09-29T05:01:58.860Z,5.80
2018-09-29T05:04:27.004Z,5.70
2018-09-29T05:06:55.186Z,5.60
2018-09-29T05:09:23.357Z,5.50
2018-09-29T05:11:51.507Z,5.40
2018-09-29T05:14:19.662Z,5.40
2018-09-29T05:16:47.812Z,5.40
2018-09-29T05:19:15.956Z,5.40
2018-09-29T05:21:44.148Z,5.50
2018-09-29T05:24:12.292Z,5.40
2018-09-29T05:26:40.454Z,5.40
2018-09-29T05:29:08.617Z,5.50
2018-09-29T05:31:36.809Z,5.50
2018-09-29T05:34:04.970Z,5.60
2018-09-29T05:36:33.113Z,5.60
2018-09-29T05:39:01.275Z,5.60
2018-09-29T05:41:29.422Z,5.70
2018-09-29T05:43:57.625Z,5.70
2018-09-29T05:46:25.795Z,5.70
2018-09-29T05:48:53.965Z,5.60
2018-09-29T05:51:22.125Z,5.60
2018-09-29T05:53:50.328Z,5.50
2018-09-29T05:56:18.456Z,5.50
2018-09-29T05:58:46.657Z,5.60
2018-09-29T06:01:14.821Z,5.60
2018-09-29T06:03:42.985Z,5.60
2018-09-29T06:06:11.152Z,5.60
2018-09-29T06:08:39.340Z,5.50
2018-09-29T06:11:07.501Z,5.60
2018-09-29T06:13:35.695Z,5.60
2018-09-29T06:16:03.839Z,5.70
2018-09-29T06:18:32.001Z,5.70
2018-09-29T06:21:00.255Z,5.70
2018-09-29T06:23:28.329Z,5.80
2018-09-29T06:25:56.477Z,5.80
2018-09-29T06:28:24.769Z,6.00
2018-09-29T06:30:52.961Z,5.90
2018-09-29T06:33:21.129Z,5.90
2018-09-29T06:35:49.293Z,5.90
2018-09-29T06:38:17.535Z,5.90
2018-09-29T06:40:45.704Z,6.00
2018-09-29T06:43:13.884Z,6.10
2018-09-29T06:45:42.041Z,6.20
2018-09-29T06:48:10.234Z,6.40
2018-09-29T06:50:38.361Z,6.50
2018-09-29T06:53:06.515Z,6.50
2018-09-29T06:55:34.669Z,6.60
2018-09-29T06:58:02.822Z,6.70
2018-09-29T07:00:30.962Z,6.70
2018-09-29T07:02:59.147Z,6.70
2018-09-29T07:05:27.277Z,6.90
2018-09-29T07:07:55.456Z,6.90
2018-09-29T07:11:26.676Z,7.00
2018-09-29T07:13:55.070Z,7.10
2018-09-29T07:16:23.217Z,7.10
2018-09-29T07:18:51.386Z,7.20
2018-09-29T07:21:19.580Z,7.30
2018-09-29T07:23:47.741Z,7.40
2018-09-29T07:26:15.884Z,7.50
2018-09-29T07:28:44.858Z,7.60
2018-09-29T07:31:13.050Z,7.80
2018-09-29T07:33:41.176Z,7.90
2018-09-29T07:36:09.317Z,8.00
2018-09-29T07:38:37.501Z,8.10
2018-09-29T07:41:05.757Z,8.20
2018-09-29T07:43:33.905Z,8.40
2018-09-29T07:46:02.084Z,8.60
2018-09-29T07:48:30.244Z,8.80
2018-09-29T07:50:58.417Z,8.90
2018-09-29T07:53:26.568Z,9.10
2018-09-29T07:55:54.759Z,9.20
2018-09-29T07:58:22.905Z,9.30
2018-09-29T08:00:51.090Z,9.40
2018-09-29T08:03:19.238Z,9.70
2018-09-29T08:05:47.397Z,9.90
2018-09-29T08:08:15.541Z,10.10
2018-09-29T08:10:43.698Z,10.20
2018-09-29T08:13:11.874Z,10.10
2018-09-29T08:15:40.152Z,10.20
2018-09-29T08:18:08.338Z,10.40
2018-09-29T08:20:36.501Z,10.40
2018-09-29T08:23:04.684Z,10.60
2018-09-29T08:25:32.866Z,10.80
2018-09-29T08:28:01.062Z,10.90
2018-09-29T08:30:29.572Z,10.90
2018-09-29T08:32:57.729Z,10.90
2018-09-29T08:35:25.900Z,11.20
2018-09-29T08:37:54.127Z,11.30
2018-09-29T08:40:22.244Z,11.40
2018-09-29T08:42:50.397Z,11.30
2018-09-29T08:45:18.582Z,11.40
2018-09-29T08:47:46.738Z,11.60
2018-09-29T08:50:14.982Z,11.60
2018-09-29T08:52:43.172Z,11.60
2018-09-29T08:55:11.371Z,11.50
2018-09-29T08:57:39.548Z,11.50
2018-09-29T09:00:07.716Z,11.50
2018-09-29T09:02:35.907Z,11.70
2018-09-29T09:05:04.313Z,11.80
2018-09-29T09:07:32.537Z,11.80
2018-09-29T09:10:00.705Z,11.80
2018-09-29T09:12:28.913Z,11.80
2018-09-29T09:14:57.205Z,11.80
2018-09-29T09:17:25.400Z,11.80
2018-09-29T09:19:53.574Z,11.80
2018-09-29T09:22:21.767Z,11.90
2018-09-29T09:24:49.954Z,12.00
2018-09-29T09:27:18.143Z,12.10
2018-09-29T09:29:46.390Z,12.20
2018-09-29T09:32:14.574Z,12.40
2018-09-29T09:34:43.035Z,12.50
2018-09-29T09:37:11.241Z,12.80
2018-09-29T09:39:39.461Z,13.10
2018-09-29T09:42:07.629Z,13.40
2018-09-29T09:44:35.830Z,13.70
2018-09-29T09:50:03.122Z,14.00
2018-09-29T09:52:31.308Z,14.10
2018-09-29T09:54:59.518Z,14.30
2018-09-29T09:57:27.721Z,14.30
2018-09-29T09:59:55.906Z,14.60
2018-09-29T10:02:29.470Z,14.80
2018-09-29T10:04:57.657Z,15.00
2018-09-29T10:07:25.825Z,15.00
2018-09-29T10:09:54.000Z,15.20
2018-09-29T10:12:22.179Z,15.50
2018-09-29T10:14:50.340Z,15.60
2018-09-29T10:17:18.531Z,15.90
2018-09-29T10:19:46.678Z,16.00
2018-09-29T10:22:14.854Z,16.30
2018-09-29T10:24:43.010Z,16.50
2018-09-29T10:27:11.197Z,16.70
2018-09-29T10:29:39.369Z,17.00
2018-09-29T10:32:07.567Z,16.80
2018-09-29T10:34:35.716Z,16.60
2018-09-29T10:37:03.874Z,16.60
2018-09-29T10:39:32.123Z,16.70
2018-09-29T10:42:00.289Z,16.80
2018-09-29T10:44:28.747Z,16.70
2018-09-29T10:46:57.035Z,16.70
2018-09-29T10:49:25.220Z,16.80
2018-09-29T10:51:53.429Z,16.90
2018-09-29T10:54:21.616Z,17.00
2018-09-29T10:56:49.799Z,17.10
2018-09-29T10:59:18.057Z,17.30
2018-09-29T11:01:46.165Z,17.20
2018-09-29T11:04:14.313Z,17.30
2018-09-29T11:06:42.462Z,17.50
2018-09-29T11:09:11.632Z,17.50
2018-09-29T11:11:39.788Z,17.60
2018-09-29T11:14:08.293Z,17.60
2018-09-29T11:16:36.463Z,17.50
2018-09-29T11:19:04.642Z,17.30
2018-09-29T11:21:32.841Z,17.30
2018-09-29T11:24:00.986Z,17.20
2018-09-29T11:26:29.143Z,17.40
2018-09-29T11:28:58.787Z,17.40
2018-09-29T11:31:26.956Z,17.50
2018-09-29T11:33:55.147Z,17.60
2018-09-29T11:36:23.334Z,17.60
2018-09-29T11:38:51.517Z,17.70
2018-09-29T11:41:19.685Z,17.80
2018-09-29T11:43:48.380Z,17.90
2018-09-29T11:46:16.633Z,18.00
2018-09-29T11:48:44.859Z,18.00
2018-09-29T11:51:13.179Z,17.90
2018-09-29T11:53:41.468Z,17.90
2018-09-29T11:56:09.748Z,17.90
2018-09-29T11:58:38.044Z,17.80
2018-09-29T12:01:06.522Z,17.60
2018-09-29T12:03:34.880Z,17.80
2018-09-29T12:06:03.167Z,18.00
2018-09-29T12:08:31.250Z,18.10
2018-09-29T12:10:59.401Z,18.20
2018-09-29T12:13:27.648Z,18.20
2018-09-29T12:15:55.830Z,18.00
2018-09-29T12:18:23.992Z,17.70
2018-09-29T12:20:52.143Z,17.70
2018-09-29T12:23:20.300Z,17.80
2018-09-29T12:25:48.459Z,17.80
2018-09-29T12:28:16.625Z,17.90
2018-09-29T12:30:44.818Z,17.90
2018-09-29T12:33:12.985Z,18.10
2018-09-29T12:35:41.134Z,18.30
2018-09-29T12:38:09.293Z,18.50
2018-09-29T12:40:37.438Z,18.50
2018-09-29T12:43:05.665Z,18.60
2018-09-29T12:45:33.837Z,18.60
2018-09-29T12:48:02.019Z,18.50
2018-09-29T12:50:30.177Z,18.60
2018-09-29T12:52:58.413Z,18.70
2018-09-29T12:55:26.556Z,18.60
2018-09-29T12:57:54.763Z,18.60
2018-09-29T13:00:23.222Z,18.60
2018-09-29T13:02:51.505Z,18.50
2018-09-29T13:05:19.785Z,18.50
2018-09-29T13:07:48.023Z,18.50
2018-09-29T13:10:16.298Z,18.60
2018-09-29T13:12:44.552Z,18.70
2018-09-29T13:15:12.764Z,18.70
2018-09-29T13:17:40.918Z,18.60
2018-09-29T13:20:09.197Z,18.50
2018-09-29T13:22:37.370Z,18.40
2018-09-29T13:25:05.558Z,18.50
2018-09-29T13:27:33.699Z,18.40
2018-09-29T13:30:01.838Z,18.30
2018-09-29T13:32:29.988Z,18.40
2018-09-29T13:34:58.117Z,18.50
2018-09-29T13:37:26.276Z,18.70
2018-09-29T13:39:54.430Z,18.80
2018-09-29T13:42:22.575Z,18.90
2018-09-29T13:44:50.748Z,18.90
2018-09-29T13:47:24.819Z,18.70
2018-09-29T13:49:52.952Z,18.70
2018-09-29T13:52:21.103Z,18.60
2018-09-29T13:54:49.249Z,18.40
2018-09-29T13:57:17.768Z,18.40
2018-09-29T13:59:45.972Z,18.30
2018-09-29T14:02:14.146Z,18.50
2018-09-29T14:04:42.326Z,18.60
2018-09-29T14:07:10.474Z,18.50
2018-09-29T14:09:38.662Z,18.10
2018-09-29T14:12:06.863Z,17.90
2018-09-29T14:14:35.029Z,18.00
2018-09-29T14:17:03.181Z,18.30
2018-09-29T14:19:31.373Z,18.60
2018-09-29T14:21:59.527Z,18.80
2018-09-29T14:24:27.668Z,18.80
2018-09-29T14:26:55.886Z,18.90
2018-09-29T14:29:24.045Z,18.90
2018-09-29T14:31:52.188Z,18.90
2018-09-29T14:34:20.342Z,18.90
2018-09-29T14:36:48.523Z,18.90
2018-09-29T14:39:16.681Z,18.90
2018-09-29T14:41:44.884Z,19.00
2018-09-29T14:44:13.024Z,19.20
2018-09-29T14:46:41.164Z,19.30
2018-09-29T14:49:09.322Z,19.20
2018-09-29T14:51:37.725Z,19.00
2018-09-29T14:54:05.926Z,19.10
2018-09-29T14:56:34.281Z,19.10
2018-09-29T14:59:02.441Z,19.10
2018-09-29T15:01:30.594Z,18.90
2018-09-29T15:03:58.760Z,18.90
2018-09-29T15:06:26.934Z,19.00
2018-09-29T15:08:55.089Z,19.10
2018-09-29T15:11:23.236Z,19.30
2018-09-29T15:13:51.380Z,19.50
2018-09-29T15:16:19.529Z,19.60
2018-09-29T15:18:47.681Z,19.80
2018-09-29T15:21:15.866Z,20.00
2018-09-29T15:23:44.101Z,20.20
2018-09-29T15:26:12.304Z,20.30
2018-09-29T15:28:40.426Z,20.60
2018-09-29T15:31:08.609Z,20.70
2018-09-29T15:33:36.781Z,20.90
2018-09-29T15:36:04.943Z,21.10
2018-09-29T15:38:33.105Z,21.10
2018-09-29T15:41:01.272Z,20.80
2018-09-29T15:43:29.421Z,20.40
2018-09-29T15:45:57.570Z,20.20
2018-09-29T15:48:25.737Z,20.20
2018-09-29T15:50:53.949Z,20.10
2018-09-29T15:53:22.090Z,20.10
2018-09-29T15:55:50.246Z,19.90
2018-09-29T15:58:18.392Z,19.60
2018-09-29T16:00:46.544Z,19.40
2018-09-29T16:03:14.705Z,19.10
2018-09-29T16:05:42.876Z,18.80
2018-09-29T16:08:11.033Z,18.50
2018-09-29T16:10:39.215Z,18.30
2018-09-29T16:13:07.373Z,18.00
2018-09-29T16:15:35.524Z,17.80
2018-09-29T16:18:03.664Z,17.60
2018-09-29T16:20:31.801Z,17.40
2018-09-29T16:22:59.930Z,17.20
2018-09-29T16:25:28.089Z,17.00
2018-09-29T16:27:56.225Z,16.90
2018-09-29T16:30:24.357Z,16.70
2018-09-29T16:32:52.512Z,16.50
2018-09-29T16:35:20.652Z,16.40
2018-09-29T16:37:48.799Z,16.20
2018-09-29T16:40:16.947Z,16.10
2018-09-29T16:42:45.107Z,15.90
2018-09-29T16:45:13.259Z,15.80
2018-09-29T16:47:41.398Z,15.70
2018-09-29T16:50:09.544Z,15.60
2018-09-29T16:52:37.663Z,15.50
2018-09-29T16:55:05.897Z,15.40
2018-09-29T16:57:34.025Z,15.30
2018-09-29T17:00:02.185Z,15.10
2018-09-29T17:02:30.312Z,15.10
2018-09-29T17:04:58.523Z,15.00
2018-09-29T17:07:26.660Z,14.90
2018-09-29T17:09:54.805Z,14.70
2018-09-29T17:12:22.937Z,14.60
2018-09-29T17:14:51.079Z,14.50
2018-09-29T17:17:19.214Z,14.40
2018-09-29T17:19:47.385Z,14.30
2018-09-29T17:22:15.560Z,14.20
2018-09-29T17:24:43.717Z,14.10
2018-09-29T17:27:11.850Z,14.00
2018-09-29T17:29:40.688Z,13.80
2018-09-29T17:32:08.833Z,13.60
2018-09-29T17:34:36.974Z,13.30
2018-09-29T17:37:05.113Z,13.00
2018-09-29T17:39:33.254Z,12.70
2018-09-29T17:42:01.393Z,12.60
2018-09-29T17:44:29.544Z,12.50
2018-09-29T17:46:57.686Z,12.50
2018-09-29T17:49:25.846Z,12.50
2018-09-29T17:51:54.001Z,12.50
2018-09-29T17:54:22.137Z,12.40
2018-09-29T17:56:50.291Z,12.40
2018-09-29T17:59:18.446Z,12.30
2018-09-29T18:01:46.602Z,12.30
2018-09-29T18:04:14.763Z,12.20
2018-09-29T18:06:42.906Z,12.10
2018-09-29T18:09:12.248Z,12.00
2018-09-29T18:11:40.479Z,12.00
2018-09-29T18:14:08.645Z,11.90
2018-09-29T18:16:36.817Z,11.80
2018-09-29T18:19:04.959Z,11.70
2018-09-29T18:21:33.155Z,11.60
2018-09-29T18:24:01.267Z,11.60
2018-09-29T18:26:29.428Z,11.50
2018-09-29T18:28:57.581Z,11.40
2018-09-29T18:31:25.736Z,11.40
2018-09-29T18:33:53.894Z,11.30
2018-09-29T18:36:22.089Z,11.20
2018-09-29T18:38:50.225Z,11.20
2018-09-29T18:41:18.367Z,11.20
2018-09-29T18:43:46.503Z,11.10
2018-09-29T18:46:14.645Z,11.00
2018-09-29T18:48:42.835Z,10.90
2018-09-29T18:51:11.006Z,10.80
2018-09-29T18:53:39.146Z,10.80
2018-09-29T18:56:07.314Z,10.70
2018-09-29T18:58:35.466Z,10.70
2018-09-29T19:01:03.685Z,10.60
2018-09-29T19:03:31.843Z,10.50
2018-09-29T19:05:59.992Z,10.30
2018-09-29T19:08:28.219Z,10.20
2018-09-29T19:10:56.366Z,10.10
2018-09-29T19:13:24.550Z,10.00
2018-09-29T19:15:52.690Z,10.00
2018-09-29T19:18:20.818Z,10.10
2018-09-29T19:20:48.973Z,10.10
2018-09-29T19:23:17.109Z,10.00
2018-09-29T19:25:45.265Z,10.00
2018-09-29T19:28:13.415Z,9.90
2018-09-29T19:30:41.541Z,9.80
2018-09-29T19:33:09.694Z,9.80
2018-09-29T19:35:37.827Z,9.70
2018-09-29T19:38:06.079Z,9.70
2018-09-29T19:40:34.223Z,9.60
2018-09-29T19:43:02.377Z,9.60
2018-09-29T19:45:30.560Z,9.60
2018-09-29T19:47:58.684Z,9.60
2018-09-29T19:50:26.817Z,9.50
2018-09-29T19:52:54.966Z,9.50
2018-09-29T19:55:23.092Z,9.30
2018-09-29T19:57:51.244Z,9.30
2018-09-29T20:00:19.385Z,9.20
2018-09-29T20:02:47.529Z,9.10
2018-09-29T20:05:15.683Z,9.10
2018-09-29T20:07:43.841Z,9.10
2018-09-29T20:10:11.996Z,9.10
2018-09-29T20:12:40.170Z,9.10
2018-09-29T20:15:08.335Z,9.10
2018-09-29T20:17:36.497Z,9.00
2018-09-29T20:20:04.646Z,9.00
2018-09-29T20:22:32.818Z,9.00
2018-09-29T20:25:00.989Z,8.90
2018-09-29T20:27:29.157Z,8.90
2018-09-29T20:29:57.319Z,8.80
2018-09-29T20:32:25.472Z,8.80
2018-09-29T20:34:53.608Z,8.80
2018-09-29T20:37:21.820Z,8.80
2018-09-29T20:39:49.949Z,8.70
2018-09-29T20:42:18.120Z,8.70
2018-09-29T20:44:46.270Z,8.70
2018-09-29T20:47:14.424Z,8.70
2018-09-29T20:49:42.579Z,8.70
2018-09-29T20:52:10.745Z,8.60
2018-09-29T20:54:38.905Z,8.60
2018-09-29T20:57:07.068Z,8.60
2018-09-29T20:59:35.232Z,8.60
2018-09-29T21:02:03.471Z,8.60
2018-09-29T21:04:31.635Z,8.60
2018-09-29T21:06:59.805Z,8.50
2018-09-29T21:09:27.951Z,8.40
2018-09-29T21:11:56.118Z,8.40
2018-09-29T21:14:24.290Z,8.30
2018-09-29T21:16:52.445Z,8.30
2018-09-29T21:19:20.602Z,8.20
2018-09-29T21:21:48.775Z,8.10
2018-09-29T21:24:16.952Z,8.10
2018-09-29T21:26:45.117Z,8.10
2018-09-29T21:29:13.271Z,8.20
2018-09-29T21:31:41.436Z,8.10
2018-09-29T21:34:09.582Z,8.00
2018-09-29T21:36:37.784Z,8.00
2018-09-29T21:39:07.581Z,8.00
2018-09-29T21:41:35.766Z,8.00
2018-09-29T21:44:04.017Z,7.90
2018-09-29T21:46:32.163Z,7.80
2018-09-29T21:49:00.306Z,7.70
2018-09-29T21:51:28.465Z,7.70
2018-09-29T21:53:56.624Z,7.60
2018-09-29T21:56:24.781Z,7.60
2018-09-29T21:58:52.954Z,7.40
2018-09-29T22:01:26.568Z,7.30
2018-09-29T22:03:54.724Z,7.20
2018-09-29T22:06:22.915Z,7.30
2018-09-29T22:08:51.072Z,7.30
2018-09-29T22:11:19.233Z,7.30
2018-09-29T22:13:47.486Z,7.30
2018-09-29T22:16:15.625Z,7.30
2018-09-29T22:18:43.838Z,7.30
2018-09-29T22:21:12.027Z,7.30
2018-09-29T22:23:40.517Z,7.30
2018-09-29T22:26:08.676Z,7.20
2018-09-29T22:28:36.846Z,7.30
2018-09-29T22:31:05.034Z,7.30
2018-09-29T22:33:33.217Z,7.40
2018-09-29T22:36:01.373Z,7.30
2018-09-29T22:38:29.617Z,7.30
2018-09-29T22:40:57.773Z,7.30
2018-09-29T22:43:25.957Z,7.20
2018-09-29T22:45:54.117Z,7.20
2018-09-29T22:48:22.282Z,7.20
2018-09-29T22:50:50.425Z,7.20
2018-09-29T22:53:18.598Z,7.20
2018-09-29T22:55:46.745Z,7.20
2018-09-29T22:58:14.910Z,7.20
2018-09-29T23:00:43.099Z,7.10
2018-09-29T23:03:11.262Z,7.20
2018-09-29T23:05:39.426Z,7.20
2018-09-29T23:08:07.581Z,7.10
2018-09-29T23:10:35.736Z,7.10
2018-09-29T23:13:03.877Z,7.00
2018-09-29T23:15:38.082Z,6.90
2018-09-29T23:18:06.258Z,6.80
2018-09-29T23:20:34.462Z,6.70
2018-09-29T23:23:02.602Z,6.60
2018-09-29T23:25:30.765Z,6.60
2018-09-29T23:27:58.913Z,6.40
2018-09-29T23:30:27.057Z,6.40
2018-09-29T23:32:55.206Z,6.30
2018-09-29T23:35:23.354Z,6.40
2018-09-29T23:37:51.500Z,6.40
2018-09-29T23:40:19.656Z,6.50
2018-09-29T23:42:47.822Z,6.50
2018-09-29T23:45:15.994Z,6.60
2018-09-29T23:47:44.165Z,6.60
2018-09-29T23:50:12.370Z,6.60
2018-09-29T23:52:40.507Z,6.60
2018-09-29T23:55:08.656Z,6.60
2018-09-29T23:57:36.808Z,6.60
